Time;durP1;ratioP1;P1;durP2;ratioP2;P2;SDS_P1;SDS_P2;PMS_P1;PMS_P2;Temp;Humidity;BMP_temperature;BMP_pressure;BME280_temperature;BME280_humidity;BME280_pressure;Samples;Min_cycle;Max_cycle;Signal;HPM_P1;HPM_P2
2022/04/18 00:01:38;;;;;;;3.53;3.10;;;;;;;2.01;100.00;96875.03;5039985;28;20559;-75
2022/04/18 00:04:05;;;;;;;3.30;2.60;;;;;;;1.82;100.00;96899.97;5047671;28;20428;-76
2022/04/18 00:06:36;;;;;;;3.13;2.73;;;;;;;1.49;100.00;96868.06;5039633;28;20436;-76
2022/04/18 00:09:03;;;;;;;4.90;2.60;;;;;;;1.99;100.00;96880.47;5016250;28;20514;-76
2022/04/18 00:11:30;;;;;;;2.47;2.27;;;;;;;2.03;100.00;96872.94;5040978;28;20513;-76
2022/04/18 00:13:57;;;;;;;2.87;2.67;;;;;;;2.25;100.00;96889.13;5036291;28;20477;-76
2022/04/18 00:16:24;;;;;;;2.63;2.40;;;;;;;2.24;100.00;96895.38;5039888;28;20490;-76
2022/04/18 00:18:51;;;;;;;3.13;2.73;;;;;;;1.58;100.00;96835.25;5042962;28;20456;-76
2022/04/18 00:21:18;;;;;;;3.47;2.60;;;;;;;1.46;100.00;96876.38;5042567;28;20807;-76
2022/04/18 00:23:45;;;;;;;3.47;2.63;;;;;;;1.81;100.00;96880.16;5036257;28;20427;-76
2022/04/18 00:26:12;;;;;;;2.80;2.33;;;;;;;1.85;100.00;96878.59;5039476;28;20438;-76
2022/04/18 00:28:39;;;;;;;3.13;2.83;;;;;;;1.92;100.00;96881.78;5033770;28;20448;-76
2022/04/18 00:31:06;;;;;;;3.03;2.73;;;;;;;2.02;100.00;96872.16;5030836;28;20468;-76
2022/04/18 00:33:33;;;;;;;3.53;2.63;;;;;;;1.91;100.00;96869.78;5029509;28;20471;-75
2022/04/18 00:36:01;;;;;;;2.63;2.10;;;;;;;2.05;100.00;96881.28;5013324;28;20522;-76
2022/04/18 00:38:30;;;;;;;3.27;2.97;;;;;;;1.66;100.00;96849.63;5035039;28;20477;-76
2022/04/18 00:40:57;;;;;;;2.60;2.40;;;;;;;1.74;100.00;96875.22;5036755;28;20485;-76
2022/04/18 00:43:40;;;;;;;3.50;2.30;;;;;;;1.44;100.00;96883.66;5049800;28;20508;-76
2022/04/18 00:46:08;;;;;;;3.03;2.70;;;;;;;0.95;100.00;96865.72;5018117;28;20454;-75
2022/04/18 00:48:34;;;;;;;4.60;2.50;;;;;;;0.48;100.00;96827.38;5020623;28;20472;-75
2022/04/18 00:51:07;;;;;;;2.80;2.40;;;;;;;0.83;100.00;96858.06;5026234;28;20538;-75
2022/04/18 00:53:36;;;;;;;4.10;3.23;;;;;;;0.62;100.00;96851.16;5029304;28;20473;-76
2022/04/18 00:56:04;;;;;;;2.60;2.40;;;;;;;0.35;100.00;96856.41;5030528;28;20518;-76
2022/04/18 00:58:32;;;;;;;2.53;2.40;;;;;;;0.62;100.00;96855.56;5040065;28;20454;-76
2022/04/18 01:00:59;;;;;;;5.80;3.00;;;;;;;0.76;100.00;96809.88;5031155;28;20849;-76
2022/04/18 01:03:30;;;;;;;2.93;2.33;;;;;;;0.89;100.00;96825.03;5029125;28;20594;-76
2022/04/18 01:06:02;;;;;;;2.70;2.20;;;;;;;0.85;100.00;96811.75;5042587;28;20958;-76
2022/04/18 01:08:34;;;;;;;3.53;3.20;;;;;;;1.01;100.00;96822.25;5029059;28;20463;-76
2022/04/18 01:11:05;;;;;;;3.10;2.80;;;;;;;1.35;100.00;96849.50;5023636;28;20474;-76
2022/04/18 01:13:50;;;;;;;3.17;2.40;;;;;;;1.13;100.00;96831.44;5036186;28;20418;-76
2022/04/18 01:16:38;;;;;;;2.73;2.53;;;;;;;1.12;100.00;96849.91;5022864;28;20944;-76
2022/04/18 01:19:28;;;;;;;2.30;2.10;;;;;;;0.59;100.00;96795.22;5045144;28;20471;-75
2022/04/18 01:22:22;;;;;;;3.60;2.87;;;;;;;0.69;100.00;96820.50;5047695;28;20546;-75
2022/04/18 01:30:24;;;;;;;2.80;2.60;;;;;;;0.47;100.00;96801.63;5023172;28;20521;-75
2022/04/18 01:32:50;;;;;;;3.83;2.30;;;;;;;0.64;100.00;96791.84;5047970;28;20469;-75
2022/04/18 01:35:17;;;;;;;3.00;2.10;;;;;;;0.46;100.00;96781.84;5035438;28;20456;-75
2022/04/18 01:37:44;;;;;;;2.63;2.20;;;;;;;0.50;100.00;96788.13;5032677;28;20431;-75
2022/04/18 01:40:14;;;;;;;2.60;1.80;;;;;;;0.70;100.00;96796.06;5044925;28;20499;-75
2022/04/18 01:42:41;;;;;;;3.40;2.40;;;;;;;0.99;100.00;96816.53;5045678;28;21045;-75
2022/04/18 01:45:09;;;;;;;2.67;2.47;;;;;;;0.73;100.00;96779.16;5040418;28;21048;-75
2022/04/18 01:47:38;;;;;;;2.73;2.50;;;;;;;1.01;100.00;96811.84;5033874;28;20817;-76
2022/04/18 01:50:05;;;;;;;3.40;2.67;;;;;;;0.96;100.00;96793.59;5024442;28;20458;-76
2022/04/18 01:52:32;;;;;;;6.03;2.40;;;;;;;1.17;100.00;96819.47;5038649;28;20435;-75
2022/04/18 01:54:59;;;;;;;3.37;2.20;;;;;;;1.16;100.00;96806.69;5043026;28;20498;-76
2022/04/18 01:57:26;;;;;;;3.20;3.00;;;;;;;0.94;100.00;96806.09;5015790;28;20439;-75
2022/04/18 01:59:53;;;;;;;2.83;2.60;;;;;;;0.74;100.00;96776.31;5041000;28;20460;-75
2022/04/18 02:02:19;;;;;;;5.67;3.00;;;;;;;0.80;100.00;96810.94;5019563;28;20468;-76
2022/04/18 02:04:46;;;;;;;2.87;2.67;;;;;;;0.47;100.00;96822.44;5031906;28;20444;-76
2022/04/18 02:07:14;;;;;;;2.47;2.30;;;;;;;0.18;100.00;96777.75;5031541;28;20940;-76
2022/04/18 02:09:46;;;;;;;4.00;2.90;;;;;;;0.17;100.00;96776.97;5041652;28;21010;-76
2022/04/18 02:12:13;;;;;;;2.60;2.40;;;;;;;0.46;100.00;96806.03;5029304;28;20441;-76
2022/04/18 02:14:53;;;;;;;2.53;2.30;;;;;;;0.18;100.00;96772.56;5044379;28;20454;-76
2022/04/18 02:17:21;;;;;;;2.83;2.50;;;;;;;0.24;100.00;96797.53;5038644;28;20491;-76
2022/04/18 02:19:48;;;;;;;2.80;2.50;;;;;;;0.04;100.00;96776.59;5039015;28;20462;-76
2022/04/18 02:22:15;;;;;;;4.37;3.20;;;;;;;0.05;100.00;96758.16;5032836;28;20455;-76
2022/04/18 02:24:42;;;;;;;2.70;2.50;;;;;;;0.23;100.00;96803.78;5044714;28;20425;-75
2022/04/18 02:27:09;;;;;;;2.70;2.50;;;;;;;-0.49;100.00;96783.38;5038020;28;20439;-76
2022/04/18 02:29:37;;;;;;;2.60;2.40;;;;;;;-0.12;100.00;96760.88;5037827;28;20583;-76
2022/04/18 02:34:50;;;;;;;3.73;3.10;;;;;;;0.40;100.00;96754.22;5044522;28;20437;-76
2022/04/18 02:37:18;;;;;;;4.50;3.20;;;;;;;0.35;100.00;96757.59;5040977;28;20863;-76
2022/04/18 02:39:45;;;;;;;3.67;2.83;;;;;;;0.01;100.00;96741.50;5021397;28;20836;-76
2022/04/18 02:42:11;;;;;;;5.13;3.50;;;;;;;0.16;100.00;96775.41;5040964;28;20455;-76
2022/04/18 02:44:45;;;;;;;3.13;2.83;;;;;;;0.05;100.00;96745.16;5025008;28;20440;-76
2022/04/18 02:47:14;;;;;;;6.37;3.50;;;;;;;0.28;100.00;96773.41;5034093;28;20450;-76
2022/04/18 02:49:41;;;;;;;3.40;3.10;;;;;;;0.16;100.00;96739.00;5037787;28;21020;-76
2022/04/18 02:52:10;;;;;;;3.80;3.40;;;;;;;0.03;100.00;96769.84;5023160;28;20853;-76
2022/04/18 02:54:37;;;;;;;6.60;3.00;;;;;;;0.09;100.00;96735.81;5044173;28;20442;-76
2022/04/18 02:57:04;;;;;;;3.43;3.13;;;;;;;0.41;100.00;96767.00;5026297;28;20520;-75
2022/04/18 02:59:31;;;;;;;9.50;3.07;;;;;;;-0.11;100.00;96720.09;5020614;28;20471;-76
2022/04/18 03:01:57;;;;;;;4.13;2.93;;;;;;;0.01;100.00;96701.72;5038388;28;20712;-76
2022/04/18 03:04:24;;;;;;;2.67;2.47;;;;;;;0.14;100.00;96724.69;5043911;28;20513;-76
2022/04/18 03:06:51;;;;;;;2.30;2.10;;;;;;;0.06;100.00;96725.94;5030700;28;20445;-76
2022/04/18 03:09:19;;;;;;;4.37;2.80;;;;;;;-0.02;100.00;96760.16;5030266;28;20587;-76
2022/04/18 03:11:46;;;;;;;2.67;2.43;;;;;;;0.21;100.00;96761.66;5030094;28;20467;-76
2022/04/18 03:14:13;;;;;;;4.23;3.03;;;;;;;0.04;100.00;96735.00;5017836;28;20428;-75
2022/04/18 03:16:41;;;;;;;3.70;2.60;;;;;;;-0.16;100.00;96694.81;5022186;28;20461;-76
2022/04/18 03:19:08;;;;;;;3.20;2.90;;;;;;;0.28;100.00;96764.84;5042697;28;20526;-76
2022/04/18 03:21:43;;;;;;;2.70;2.47;;;;;;;0.22;100.00;96750.22;5043497;28;20455;-76
2022/04/18 03:24:10;;;;;;;4.83;3.10;;;;;;;-0.04;100.00;96728.44;5022577;28;20475;-76
2022/04/18 03:26:57;;;;;;;3.37;2.80;;;;;;;0.07;100.00;96722.28;5029054;28;20961;-76
2022/04/18 03:29:29;;;;;;;3.17;2.53;;;;;;;0.26;100.00;96715.66;5038115;28;20517;-76
2022/04/18 03:31:56;;;;;;;5.80;2.57;;;;;;;0.32;100.00;96734.69;5043406;28;20434;-76
2022/04/18 03:34:27;;;;;;;3.63;2.63;;;;;;;0.01;100.00;96699.91;5043054;28;20437;-76
2022/04/18 03:39:50;;;;;;;4.33;2.97;;;;;;;-0.01;100.00;96696.75;5032100;28;20541;-76
2022/04/18 03:42:32;;;;;;;2.67;2.33;;;;;;;0.09;100.00;96707.22;5041753;28;20447;-76
2022/04/18 03:45:05;;;;;;;3.13;2.30;;;;;;;0.07;100.00;96703.31;5061734;28;20485;-76
2022/04/18 03:47:32;;;;;;;3.63;3.13;;;;;;;0.04;100.00;96724.63;5021129;28;21068;-76
2022/04/18 03:49:59;;;;;;;2.60;2.50;;;;;;;-0.05;100.00;96716.47;5020586;28;20460;-76
2022/04/18 03:52:26;;;;;;;4.07;2.60;;;;;;;-0.23;100.00;96694.28;5036071;28;21008;-76
2022/04/18 03:54:57;;;;;;;3.43;3.10;;;;;;;-0.34;100.00;96718.59;5029940;28;20509;-76
2022/04/18 03:57:30;;;;;;;2.63;2.40;;;;;;;-0.30;100.00;96722.25;5043260;28;20431;-76
2022/04/18 04:00:04;;;;;;;3.80;3.50;;;;;;;-0.24;100.00;96716.09;5038781;28;20488;-76
2022/04/18 04:02:39;;;;;;;8.67;2.67;;;;;;;-0.34;100.00;96684.81;5037611;28;20943;-76
2022/04/18 04:05:07;;;;;;;2.93;2.73;;;;;;;-0.37;100.00;96680.13;5038745;28;20463;-76
2022/04/18 04:07:34;;;;;;;3.73;3.17;;;;;;;-0.40;100.00;96668.44;5041630;28;20942;-76
2022/04/18 04:10:17;;;;;;;3.10;2.70;;;;;;;-0.22;100.00;96680.25;5029365;28;20465;-76
2022/04/18 04:12:44;;;;;;;3.67;2.90;;;;;;;-0.83;100.00;96661.53;5013312;28;20431;-76
2022/04/18 04:15:31;;;;;;;4.30;2.87;;;;;;;-0.82;100.00;96696.03;5041748;28;20466;-76
2022/04/18 04:18:04;;;;;;;3.27;2.27;;;;;;;-0.69;100.00;96693.84;5026018;28;20480;-76
2022/04/18 04:20:30;;;;;;;3.30;2.93;;;;;;;-0.46;100.00;96699.78;5019845;28;20469;-76
2022/04/18 04:22:57;;;;;;;4.07;3.03;;;;;;;-0.20;100.00;96700.78;5036769;28;20463;-76
2022/04/18 04:25:53;;;;;;;2.63;2.40;;;;;;;-0.37;100.00;96672.34;5022908;28;20494;-75
2022/04/18 04:28:26;;;;;;;3.03;2.80;;;;;;;-0.40;100.00;96689.19;5037420;28;20940;-75
2022/04/18 04:30:53;;;;;;;4.00;3.60;;;;;;;-0.78;100.00;96673.78;5042061;28;20447;-76
2022/04/18 04:33:20;;;;;;;4.13;2.60;;;;;;;-0.50;100.00;96680.53;5030398;28;21010;-75
2022/04/18 04:35:50;;;;;;;2.60;2.27;;;;;;;-0.53;100.00;96696.63;5018229;28;20447;-75
2022/04/18 04:38:19;;;;;;;3.00;2.60;;;;;;;-0.39;100.00;96672.59;5033594;28;20472;-75
2022/04/18 04:40:53;;;;;;;2.63;2.27;;;;;;;-0.69;100.00;96667.88;5033918;28;20518;-75
2022/04/18 04:43:33;;;;;;;2.90;2.40;;;;;;;-0.46;100.00;96705.75;5033505;28;20517;-75
2022/04/18 04:46:03;;;;;;;11.20;3.57;;;;;;;-0.34;100.00;96700.41;5045933;28;20438;-76
2022/04/18 04:48:33;;;;;;;3.50;3.10;;;;;;;-0.63;100.00;96673.94;5019482;28;20456;-76
2022/04/18 04:51:08;;;;;;;3.83;2.60;;;;;;;-0.12;100.00;96716.72;5042508;28;20439;-76
2022/04/18 04:53:35;;;;;;;2.90;2.70;;;;;;;-0.33;100.00;96712.38;5032890;28;20448;-75
2022/04/18 04:56:02;;;;;;;2.63;2.43;;;;;;;-0.33;100.00;96694.19;5037687;28;20449;-76
2022/04/18 04:58:32;;;;;;;2.60;2.40;;;;;;;-0.30;100.00;96694.47;5042052;28;20475;-76
2022/04/18 05:01:05;;;;;;;3.00;2.80;;;;;;;-0.02;100.00;96700.38;5031305;28;20458;-76
2022/04/18 05:03:50;;;;;;;5.23;2.40;;;;;;;0.38;100.00;96705.06;5057854;28;20993;-75
2022/04/18 05:06:18;;;;;;;4.90;3.60;;;;;;;0.05;100.00;96656.00;5025867;28;20439;-76
2022/04/18 05:08:46;;;;;;;3.53;2.80;;;;;;;0.44;100.00;96701.47;5040698;28;20469;-76
2022/04/18 05:11:14;;;;;;;3.23;2.83;;;;;;;0.53;100.00;96692.16;5053148;28;20457;-76
2022/04/18 05:13:50;;;;;;;3.70;2.90;;;;;;;0.34;100.00;96703.22;5039569;28;20461;-76
2022/04/18 05:16:23;;;;;;;3.83;3.43;;;;;;;0.48;100.00;96699.16;5041443;28;20513;-76
2022/04/18 05:19:09;;;;;;;3.40;3.00;;;;;;;0.61;100.00;96705.72;5020978;28;20894;-76
2022/04/18 05:21:36;;;;;;;3.67;3.33;;;;;;;0.63;100.00;96706.25;5017898;28;20450;-76
2022/04/18 05:24:10;;;;;;;4.33;3.10;;;;;;;0.70;100.00;96710.19;5043426;28;20469;-76
2022/04/18 05:26:38;;;;;;;3.53;3.23;;;;;;;0.79;100.00;96676.66;5049280;28;20438;-76
2022/04/18 05:29:05;;;;;;;3.90;3.40;;;;;;;0.83;100.00;96691.53;5042949;28;20465;-76
2022/04/18 05:31:32;;;;;;;6.73;3.77;;;;;;;0.90;100.00;96675.66;5046037;28;20519;-76
2022/04/18 05:34:00;;;;;;;3.93;3.60;;;;;;;0.93;100.00;96659.50;5042375;28;20425;-76
2022/04/18 05:36:32;;;;;;;4.87;4.37;;;;;;;1.17;100.00;96696.28;5034980;28;20448;-76
2022/04/18 05:39:02;;;;;;;4.80;4.30;;;;;;;1.36;100.00;96699.22;5032269;28;20525;-75
2022/04/18 05:41:34;;;;;;;3.77;3.37;;;;;;;1.53;100.00;96691.16;5032830;28;20435;-76
2022/04/18 05:44:00;;;;;;;6.40;4.23;;;;;;;1.68;100.00;96672.94;5044380;28;20475;-76
2022/04/18 05:46:34;;;;;;;5.60;4.97;;;;;;;1.99;100.00;96689.34;5039338;28;20451;-75
2022/04/18 05:49:01;;;;;;;4.73;4.33;;;;;;;2.36;100.00;96699.47;5020021;28;20477;-76
2022/04/18 05:51:28;;;;;;;4.23;3.53;;;;;;;2.42;100.00;96727.13;5025511;28;20532;-76
2022/04/18 05:53:55;;;;;;;4.57;4.17;;;;;;;2.17;100.00;96699.25;5038587;28;20444;-76
2022/04/18 05:56:29;;;;;;;4.27;3.23;;;;;;;2.37;100.00;96696.59;5039876;28;20537;-76
2022/04/18 05:58:58;;;;;;;5.00;4.50;;;;;;;2.59;100.00;96696.28;5037101;28;20459;-75
2022/04/18 06:01:45;;;;;;;4.53;4.03;;;;;;;2.76;100.00;96689.97;5031370;28;20445;-76
2022/04/18 06:04:30;;;;;;;5.70;4.60;;;;;;;3.05;100.00;96703.16;5027235;28;20446;-76
2022/04/18 06:07:29;;;;;;;4.23;3.67;;;;;;;3.31;100.00;96719.50;5013778;28;20441;-76
2022/04/18 06:10:25;;;;;;;4.50;3.70;;;;;;;3.47;100.00;96737.47;5042206;28;20458;-76
2022/04/18 06:13:09;;;;;;;3.97;3.60;;;;;;;3.68;100.00;96724.25;5017901;28;20440;-76
2022/04/18 06:15:37;;;;;;;4.17;3.77;;;;;;;3.93;100.00;96724.09;5032286;28;20458;-76
2022/04/18 06:18:04;;;;;;;4.03;3.70;;;;;;;4.13;100.00;96723.91;5031977;28;21033;-76
2022/04/18 06:20:31;;;;;;;3.90;3.50;;;;;;;4.29;100.00;96702.88;5050043;28;21095;-76
2022/04/18 06:22:58;;;;;;;4.17;3.77;;;;;;;4.27;100.00;96707.56;5024017;28;20450;-76
2022/04/18 06:25:25;;;;;;;3.87;3.20;;;;;;;4.05;100.00;96661.72;5031878;28;20483;-76
2022/04/18 06:27:51;;;;;;;3.43;3.03;;;;;;;4.61;100.00;96725.84;5031583;28;20838;-76
2022/04/18 06:30:19;;;;;;;4.10;3.80;;;;;;;4.61;100.00;96734.47;5020899;28;20546;-76
2022/04/18 06:33:12;;;;;;;5.00;4.13;;;;;;;4.67;100.00;96727.34;5037536;28;20519;-76
2022/04/18 06:35:41;;;;;;;4.03;3.70;;;;;;;4.83;100.00;96726.13;5024580;28;20447;-76
2022/04/18 06:38:08;;;;;;;4.83;3.53;;;;;;;4.72;100.00;96722.06;5035222;28;20800;-76
2022/04/18 06:41:04;;;;;;;4.33;4.03;;;;;;;5.00;100.00;96746.63;5055087;28;20562;-76
2022/04/18 06:43:35;;;;;;;4.60;4.20;;;;;;;5.14;100.00;96729.19;5035278;28;20558;-76
2022/04/18 06:46:07;;;;;;;4.30;3.97;;;;;;;5.03;100.00;96731.13;5017384;28;20445;-76
2022/04/18 06:48:34;;;;;;;3.50;3.20;;;;;;;5.08;100.00;96711.19;5015555;28;20467;-76
2022/04/18 06:51:20;;;;;;;4.53;3.67;;;;;;;5.38;100.00;96744.09;5051341;28;20431;-76
2022/04/18 06:53:52;;;;;;;4.43;3.30;;;;;;;5.49;100.00;96695.69;5054233;28;20431;-76
2022/04/18 06:59:30;;;;;;;3.50;2.70;;;;;;;6.62;100.00;96729.59;5032741;28;20468;-76
2022/04/18 07:01:59;;;;;;;3.70;3.40;;;;;;;6.47;99.92;96736.69;5030889;28;20441;-77
2022/04/18 07:04:26;;;;;;;4.00;3.30;;;;;;;6.80;98.27;96712.97;5030830;28;20585;-76
2022/04/18 07:06:53;;;;;;;3.87;2.77;;;;;;;7.14;94.59;96712.59;5031034;28;20502;-76
2022/04/18 07:09:21;;;;;;;3.80;3.50;;;;;;;7.01;92.52;96706.25;5018136;28;20487;-76
2022/04/18 07:11:52;;;;;;;3.17;2.97;;;;;;;7.07;92.11;96689.31;5030937;28;20445;-76
2022/04/18 07:14:22;;;;;;;3.70;3.40;;;;;;;7.36;91.00;96707.41;5022748;28;20461;-76
2022/04/18 07:16:53;;;;;;;4.27;3.40;;;;;;;7.99;88.48;96718.88;5050481;28;20462;-77
2022/04/18 07:19:23;;;;;;;3.40;3.10;;;;;;;7.93;86.79;96665.56;5029707;28;20463;-77
2022/04/18 07:21:51;;;;;;;4.20;3.60;;;;;;;8.25;85.94;96695.34;5050739;28;20444;-76
2022/04/18 07:24:18;;;;;;;7.23;3.80;;;;;;;8.34;83.71;96719.09;5030883;28;20551;-76
2022/04/18 07:26:47;;;;;;;3.60;3.30;;;;;;;8.18;84.08;96695.00;5030642;28;20456;-76
2022/04/18 07:29:17;;;;;;;4.27;3.87;;;;;;;8.12;82.95;96698.81;5041321;28;20493;-76
2022/04/18 07:31:43;;;;;;;3.77;3.10;;;;;;;8.96;80.89;96713.84;5050517;28;20534;-77
2022/04/18 07:34:10;;;;;;;4.37;3.57;;;;;;;9.12;79.25;96730.78;5023125;28;20448;-77
2022/04/18 07:36:37;;;;;;;3.33;3.03;;;;;;;8.69;77.56;96677.94;5036690;28;20441;-76
2022/04/18 07:39:04;;;;;;;6.00;3.10;;;;;;;8.24;77.05;96696.41;5031454;28;20472;-77
2022/04/18 07:41:35;;;;;;;5.83;3.63;;;;;;;8.62;76.94;96696.78;5028555;28;20465;-77
2022/04/18 07:44:03;;;;;;;4.83;2.83;;;;;;;9.20;75.97;96719.47;5030881;28;20618;-76
2022/04/18 07:46:32;;;;;;;3.50;2.97;;;;;;;10.05;75.39;96722.50;5051285;28;20463;-76
2022/04/18 07:49:01;;;;;;;3.50;2.93;;;;;;;10.18;72.29;96710.22;5031924;28;20476;-76
2022/04/18 07:51:34;;;;;;;4.67;3.30;;;;;;;9.94;71.67;96686.91;5031985;28;20503;-76
2022/04/18 07:54:07;;;;;;;3.30;3.00;;;;;;;9.58;71.70;96698.56;5018936;28;20459;-76
2022/04/18 07:56:35;;;;;;;4.77;4.27;;;;;;;9.83;71.54;96715.50;5047567;28;20500;-76
2022/04/18 07:59:03;;;;;;;3.37;3.07;;;;;;;9.81;69.66;96703.72;5034346;28;20465;-76
2022/04/18 08:01:34;;;;;;;3.80;2.60;;;;;;;10.10;68.03;96726.84;5023326;28;21147;-76
2022/04/18 08:04:02;;;;;;;2.97;2.70;;;;;;;10.35;68.53;96724.19;5029104;28;20459;-76
2022/04/18 08:06:31;;;;;;;3.17;2.90;;;;;;;10.12;65.42;96722.78;5022472;28;20445;-77
2022/04/18 08:09:08;;;;;;;3.23;2.93;;;;;;;10.43;65.37;96706.75;5035730;28;20480;-76
2022/04/18 08:11:34;;;;;;;4.20;3.40;;;;;;;10.65;64.67;96717.09;5024086;28;20434;-76
2022/04/18 08:14:02;;;;;;;2.93;2.70;;;;;;;10.64;64.56;96723.47;5036474;28;20835;-76
2022/04/18 08:16:31;;;;;;;4.20;3.23;;;;;;;10.74;62.80;96719.72;5046379;28;20515;-76
2022/04/18 08:19:09;;;;;;;2.40;2.07;;;;;;;10.36;62.12;96699.31;5018423;28;20457;-76
2022/04/18 08:21:36;;;;;;;3.00;2.20;;;;;;;10.91;60.70;96724.94;5046315;28;20448;-77
2022/04/18 08:24:05;;;;;;;2.67;2.47;;;;;;;11.56;62.26;96728.16;5046708;28;20504;-77
2022/04/18 08:26:38;;;;;;;3.20;2.40;;;;;;;11.29;61.33;96718.06;5037272;28;20444;-75
2022/04/18 08:29:18;;;;;;;5.10;2.80;;;;;;;11.36;59.73;96691.88;5025372;28;20460;-75
2022/04/18 08:32:04;;;;;;;2.83;2.63;;;;;;;11.25;58.65;96713.41;5052539;28;20872;-75
2022/04/18 08:34:35;;;;;;;3.37;2.93;;;;;;;11.56;58.81;96693.72;5017409;28;20517;-76
2022/04/18 08:37:04;;;;;;;5.10;2.57;;;;;;;11.45;58.25;96708.44;5051387;28;20454;-75
2022/04/18 08:39:51;;;;;;;4.47;3.10;;;;;;;11.69;59.17;96695.34;5034588;28;20535;-75
2022/04/18 08:42:22;;;;;;;2.93;2.63;;;;;;;11.95;57.82;96694.38;5034506;28;20439;-75
2022/04/18 08:44:50;;;;;;;3.20;2.90;;;;;;;11.31;57.98;96707.91;5024301;28;20529;-75
2022/04/18 08:52:54;;;;;;;3.47;2.47;;;;;;;11.17;58.08;96653.34;5041165;28;20440;-75
2022/04/18 08:55:37;;;;;;;2.97;2.33;;;;;;;11.79;57.92;96694.22;5038427;28;20806;-75
2022/04/18 08:58:24;;;;;;;3.33;2.77;;;;;;;11.35;59.20;96663.81;5025355;28;20551;-74
2022/04/18 09:00:52;;;;;;;4.27;3.47;;;;;;;11.69;57.48;96692.69;5038298;28;20553;-75
2022/04/18 09:03:44;;;;;;;3.47;2.30;;;;;;;11.74;55.66;96687.19;5039686;28;20961;-74
2022/04/18 09:06:13;;;;;;;3.07;2.87;;;;;;;11.95;55.38;96675.84;5038159;28;20436;-74
2022/04/18 09:08:57;;;;;;;3.00;2.80;;;;;;;11.57;56.17;96691.88;5018168;28;20531;-74
2022/04/18 09:11:38;;;;;;;2.40;2.20;;;;;;;11.75;55.61;96699.38;5018506;28;20442;-74
2022/04/18 09:14:13;;;;;;;2.80;2.47;;;;;;;11.48;54.15;96690.03;5054509;28;20441;-74
2022/04/18 09:16:46;;;;;;;5.07;3.07;;;;;;;11.55;55.45;96676.28;5054490;28;20457;-75
2022/04/18 09:19:33;;;;;;;3.13;2.90;;;;;;;10.76;55.21;96683.16;5042425;28;20460;-74
2022/04/18 09:22:04;;;;;;;2.67;2.47;;;;;;;10.97;56.42;96683.22;5024496;28;20658;-75
2022/04/18 09:24:46;;;;;;;2.33;2.13;;;;;;;10.33;54.92;96620.66;5039461;28;20521;-75
2022/04/18 09:27:23;;;;;;;2.37;2.10;;;;;;;10.21;55.58;96673.38;5052145;28;20532;-75
2022/04/18 09:30:10;;;;;;;2.47;1.97;;;;;;;10.23;54.87;96668.56;5022807;28;20468;-75
2022/04/18 09:33:06;;;;;;;2.80;2.60;;;;;;;10.72;55.08;96661.09;5035660;28;20452;-75
2022/04/18 09:35:38;;;;;;;3.73;2.90;;;;;;;10.50;53.67;96664.75;5043257;28;20491;-75
2022/04/18 09:38:08;;;;;;;2.10;1.87;;;;;;;10.90;54.70;96661.75;5051854;28;20484;-75
2022/04/18 09:40:54;;;;;;;1.87;1.73;;;;;;;10.68;53.11;96633.69;5037404;28;20463;-75
2022/04/18 09:43:44;;;;;;;2.90;2.70;;;;;;;10.21;51.71;96580.09;5045547;28;20544;-74
2022/04/18 09:46:15;;;;;;;3.03;2.50;;;;;;;10.79;51.19;96642.06;5023130;28;20463;-74
2022/04/18 09:49:03;;;;;;;2.57;2.37;;;;;;;10.40;51.35;96606.94;5039378;28;20479;-75
2022/04/18 09:51:37;;;;;;;2.63;2.20;;;;;;;10.60;51.51;96637.19;5020607;28;20544;-74
2022/04/18 09:54:13;;;;;;;2.93;2.40;;;;;;;10.98;53.24;96645.06;5045880;28;20532;-75
2022/04/18 09:56:50;;;;;;;2.80;2.60;;;;;;;10.53;51.35;96568.91;5033727;28;21262;-74
2022/04/18 09:59:19;;;;;;;2.70;2.10;;;;;;;10.90;50.84;96637.97;5032225;28;20538;-74
2022/04/18 10:01:46;;;;;;;3.67;2.57;;;;;;;10.91;50.46;96620.97;5015749;28;20453;-74
2022/04/18 10:04:13;;;;;;;4.20;2.13;;;;;;;11.34;50.40;96604.81;5015455;28;20444;-74
2022/04/18 10:06:44;;;;;;;2.47;2.27;;;;;;;11.45;51.41;96635.09;5032182;28;20912;-74
2022/04/18 10:09:12;;;;;;;2.60;2.40;;;;;;;11.48;52.87;96625.72;5020044;28;20824;-74
2022/04/18 10:11:39;;;;;;;2.47;2.20;;;;;;;11.23;51.39;96604.44;5032070;28;20952;-74
2022/04/18 10:14:06;;;;;;;5.83;2.90;;;;;;;11.83;51.13;96602.38;5037388;28;20936;-74
2022/04/18 10:16:33;;;;;;;3.13;2.20;;;;;;;11.59;52.48;96578.44;5040777;28;20459;-75
2022/04/18 10:19:06;;;;;;;2.53;2.33;;;;;;;11.93;52.92;96614.44;5031746;28;20539;-75
2022/04/18 10:21:33;;;;;;;2.63;2.37;;;;;;;11.59;52.77;96571.25;5031721;28;20442;-74
2022/04/18 10:24:25;;;;;;;3.17;2.30;;;;;;;12.33;52.92;96615.41;5015385;28;20442;-74
2022/04/18 10:27:18;;;;;;;2.70;2.00;;;;;;;12.11;51.81;96605.22;5035729;28;20471;-74
2022/04/18 10:29:50;;;;;;;3.40;2.80;;;;;;;12.33;51.35;96582.81;5052519;28;20511;-74
2022/04/18 10:32:22;;;;;;;2.27;2.07;;;;;;;11.97;50.19;96605.50;5043175;28;20441;-74
2022/04/18 10:34:50;;;;;;;3.07;2.60;;;;;;;11.88;50.70;96598.75;5031636;28;20435;-74
2022/04/18 10:37:22;;;;;;;2.47;2.27;;;;;;;11.96;50.89;96580.13;5031339;28;20451;-74
2022/04/18 10:39:57;;;;;;;2.80;2.37;;;;;;;11.94;49.75;96576.25;5031438;28;20442;-74
2022/04/18 10:42:31;;;;;;;3.43;2.50;;;;;;;12.28;51.09;96561.81;5044907;28;20428;-74
2022/04/18 10:44:59;;;;;;;2.50;2.30;;;;;;;12.39;49.78;96595.53;5051123;28;20550;-74
2022/04/18 10:47:26;;;;;;;1.77;1.67;;;;;;;12.36;49.98;96580.28;5046513;28;20535;-74
2022/04/18 10:50:16;;;;;;;2.50;2.23;;;;;;;12.59;48.65;96590.47;5031537;28;20450;-74
2022/04/18 10:53:08;;;;;;;2.50;2.30;;;;;;;13.07;48.06;96580.88;5031309;28;20457;-74
2022/04/18 10:55:37;;;;;;;3.47;2.67;;;;;;;12.68;47.82;96580.47;5031941;28;20429;-74
2022/04/18 10:58:15;;;;;;;2.13;1.93;;;;;;;13.30;48.31;96571.31;5053864;28;20428;-74
2022/04/18 11:00:53;;;;;;;2.57;2.33;;;;;;;13.90;46.04;96572.94;5053645;28;20429;-74
2022/04/18 11:03:37;;;;;;;11.40;2.50;;;;;;;13.96;47.44;96573.47;5054023;28;20936;-74
2022/04/18 11:06:32;;;;;;;2.10;2.00;;;;;;;14.15;45.44;96573.53;5052744;28;21036;-74
2022/04/18 11:09:07;;;;;;;2.60;2.20;;;;;;;13.54;46.49;96554.53;5014370;28;20472;-74
2022/04/18 11:11:42;;;;;;;2.47;2.27;;;;;;;13.68;45.19;96570.84;5022457;28;20823;-74
2022/04/18 11:14:15;;;;;;;3.23;2.50;;;;;;;14.35;43.92;96573.66;5039667;28;20475;-74
2022/04/18 11:16:42;;;;;;;2.33;2.13;;;;;;;13.58;43.45;96553.50;5051574;28;20428;-74
2022/04/18 11:19:09;;;;;;;2.70;2.50;;;;;;;13.95;43.36;96563.94;5050382;28;20441;-74
2022/04/18 11:21:59;;;;;;;3.00;2.80;;;;;;;13.64;43.80;96554.03;5034357;28;20915;-74
2022/04/18 11:24:36;;;;;;;2.37;2.20;;;;;;;14.23;43.89;96541.81;5050154;28;20429;-74
2022/04/18 11:27:07;;;;;;;2.33;2.13;;;;;;;14.63;42.65;96545.06;5051640;28;20474;-74
2022/04/18 11:29:33;;;;;;;2.83;2.30;;;;;;;14.20;42.55;96549.38;5033818;28;21026;-74
2022/04/18 11:32:01;;;;;;;2.80;2.60;;;;;;;13.76;43.34;96546.00;5043657;28;20957;-74
2022/04/18 11:34:30;;;;;;;4.53;1.80;;;;;;;13.73;43.84;96540.59;5030761;28;20452;-74
2022/04/18 11:36:59;;;;;;;2.80;2.60;;;;;;;12.78;44.46;96537.59;5014339;28;20442;-74
2022/04/18 11:39:44;;;;;;;2.73;2.50;;;;;;;12.49;45.00;96512.09;5014220;28;20461;-74
2022/04/18 11:42:17;;;;;;;2.90;2.10;;;;;;;12.27;46.45;96509.91;5049790;28;20866;-74
2022/04/18 11:44:46;;;;;;;2.33;2.13;;;;;;;12.53;46.08;96536.06;5046447;28;20426;-74
2022/04/18 11:47:21;;;;;;;2.60;2.07;;;;;;;11.94;45.94;96504.72;5030044;28;20429;-74
2022/04/18 11:49:50;;;;;;;2.23;1.97;;;;;;;12.98;44.68;96494.19;5047573;28;20462;-74
2022/04/18 11:52:21;;;;;;;4.30;2.40;;;;;;;13.40;44.41;96506.34;5054362;28;20468;-74
2022/04/18 11:55:06;;;;;;;2.20;2.00;;;;;;;14.00;42.66;96507.84;5030691;28;20890;-74
2022/04/18 11:57:37;;;;;;;2.23;2.10;;;;;;;14.97;41.72;96527.56;5031541;28;20527;-74
2022/04/18 12:00:10;;;;;;;3.73;2.63;;;;;;;14.67;41.55;96494.56;5031104;28;20953;-74
2022/04/18 12:08:18;;;;;;;4.87;2.40;;;;;;;14.14;44.42;96510.84;5030623;28;20583;-74
2022/04/18 12:10:45;;;;;;;2.07;1.97;;;;;;;13.64;44.40;96508.88;5012987;28;20452;-74
2022/04/18 12:13:14;;;;;;;2.47;2.27;;;;;;;13.28;44.37;96509.81;5013044;28;20461;-74
2022/04/18 12:15:43;;;;;;;2.13;1.93;;;;;;;12.80;45.23;96506.19;5029393;28;20957;-73
2022/04/18 12:18:15;;;;;;;2.20;1.67;;;;;;;13.63;44.53;96490.63;5030956;28;20430;-74
2022/04/18 12:20:46;;;;;;;3.10;2.33;;;;;;;13.99;43.05;96486.94;5029575;28;20449;-74
2022/04/18 12:23:21;;;;;;;2.93;1.97;;;;;;;14.14;41.82;96468.31;5043497;28;20533;-74